Flight Track Log - Related Links

Times and Time Zones

All times are in EDT time to prevent confusion due to time zone crossing. See the UAL5887 flight status page for this flight to view local times or setup timezone preferences in your user account.

Time Position Orientation Groundspeed Altitude Reporting Facility
EDT Latitude Longitude Course Direction KTS MPH feet Rate Location/Type
Mon 06:51:44 PM 35.2353 -80.9594 328° Northwest 160 184 1,600  Level Atlanta Center
Mon 06:53:08 PM 35.2992 -81.0081 328° Northwest 250 288 4,000 1,833 Climbing Atlanta Center
Mon 06:54:08 PM 35.3592 -80.9956 10° North 250 288 6,000 2,200 Climbing Atlanta Center
Mon 06:55:08 PM 35.4297 -80.9775 12° North 250 288 8,400 2,300 Climbing Atlanta Center
Mon 06:56:08 PM 35.5042 -80.9544 14° North 271 312 10,600 1,800 Climbing Atlanta Center
Mon 06:57:08 PM 35.5828 -80.9286 15° North 281 323 12,000 1,714 Climbing Atlanta Center
Mon 06:58:07 PM 35.6636 -80.9050 13° North 287 330 14,000 1,700 Climbing Atlanta Center
Mon 06:59:08 PM 35.7467 -80.8917 North 292 336 15,400 1,190 Climbing Atlanta Center
Mon 07:00:08 PM 35.8186 -80.9322 335° Northwest 281 323 16,400 1,050 Climbing Atlanta Center
Mon 07:01:08 PM 35.8931 -80.9833 331° Northwest 293 337 17,500 1,100 Climbing Atlanta Center
Mon 07:02:08 PM 35.9672 -81.0319 332° Northwest 308 354 18,600 1,250 Climbing Atlanta Center
Mon 07:03:08 PM 36.0436 -81.0831 332° Northwest 308 354 20,000 1,350 Climbing Atlanta Center
Mon 07:04:08 PM 36.1178 -81.1342 331° Northwest 308 354 21,300 1,311 Climbing Atlanta Center
Mon 07:05:07 PM 36.1900 -81.1856 330° Northwest 308 354 22,600 1,250 Climbing Atlanta Center
Mon 07:06:08 PM 36.2661 -81.2369 331° Northwest 308 354 23,800 1,200 Climbing Atlanta Center
Mon 07:07:07 PM 36.3325 -81.3172 316° Northwest 303 349 25,000 1,210 Climbing Atlanta Center
Mon 07:08:07 PM 36.3906 -81.3925 314° West 303 349 26,200 1,190 Climbing Atlanta Center
Mon 07:09:08 PM 36.4525 -81.4653 317° Northwest 309 356 27,400 1,240 Climbing Atlanta Center
Mon 07:10:08 PM 36.5103 -81.5358 316° Northwest 303 349 28,700 1,150 Climbing Atlanta Center
Mon 07:11:08 PM 36.5681 -81.6117 314° West 298 343 29,700 1,109 Climbing Atlanta Center
Mon 07:12:07 PM 36.6258 -81.6822 316° Northwest 290 334 30,900 1,300 Climbing Atlanta Center
Mon 07:13:08 PM 36.6814 -81.7506 315° West 290 334 32,300 1,066 Climbing Atlanta Center
Mon 07:15:24 PM 36.8014 -81.9017 315° West 286 329 34,400 970 Climbing Indianapolis Center
Mon 07:16:26 PM 36.8683 -81.9853 315° West 289 333 35,500 774 Climbing Indianapolis Center
Mon 07:17:28 PM 36.9253 -82.0572 315° West 288 331 36,000 242 Climbing Indianapolis Center
Mon 07:18:30 PM 36.9850 -82.1333 315° West 304 350 36,000  Level Indianapolis Center
Mon 07:19:31 PM 37.0500 -82.2136 315° West 322 371 36,000  Level Indianapolis Center
Mon 07:20:33 PM 37.1175 -82.2992 315° West 341 392 36,000  Level Indianapolis Center
Mon 07:21:35 PM 37.1972 -82.4017 314° West 351 404 36,000  Level Indianapolis Center
Mon 07:22:37 PM 37.2667 -82.4906 314° West 357 411 36,000  Level Indianapolis Center
Mon 07:23:39 PM 37.3350 -82.5783 314° West 354 407 36,000  Level Indianapolis Center
Mon 07:24:41 PM 37.4031 -82.6650 315° West 350 403 36,000  Level Indianapolis Center
Mon 07:25:43 PM 37.4692 -82.7517 314° West 346 398 36,000 -48 Level Indianapolis Center
Mon 07:26:45 PM 37.5489 -82.8525 315° West 348 400 35,900 -49 Descending Indianapolis Center
Mon 07:27:46 PM 37.6158 -82.9408 314° West 348 400 35,900 49 Level Indianapolis Center
Mon 07:28:48 PM 37.6831 -83.0281 314° West 348 400 36,000  Climbing Indianapolis Center
Mon 07:29:50 PM 37.7517 -83.1156 315° West 350 403 35,900  Descending Indianapolis Center
Mon 07:30:52 PM 37.8208 -83.2072 314° West 358 412 36,000 48 Climbing Indianapolis Center
Mon 07:31:54 PM 37.8908 -83.2989 314° West 361 415 36,000  Level Indianapolis Center
Mon 07:32:56 PM 37.9694 -83.4042 313° West 354 407 36,000  Level Indianapolis Center
Mon 07:33:58 PM 38.0394 -83.4939 315° West 356 410 36,000  Level Indianapolis Center
Mon 07:35:00 PM 38.1083 -83.5844 314° West 356 410 36,000  Level Indianapolis Center
Mon 07:36:01 PM 38.1769 -83.6772 313° West 358 412 36,000 -537 Level Indianapolis Center
Mon 07:37:03 PM 38.2469 -83.7708 314° West 363 418 34,900 -1,065 Descending Indianapolis Center
Mon 07:38:05 PM 38.3167 -83.8639 314° West 363 418 33,800 -919 Descending Indianapolis Center
Mon 07:39:07 PM 38.3969 -83.9708 314° West 361 415 33,000 -774 Descending Indianapolis Center
Mon 07:40:09 PM 38.4672 -84.0633 314° West 363 418 32,200 -484 Descending Indianapolis Center
Mon 07:41:11 PM 38.5358 -84.1561 313° West 358 412 32,000 -98 Descending Indianapolis Center
Mon 07:42:12 PM 38.6031 -84.2489 313° West 354 407 32,000  Level Indianapolis Center
Mon 07:43:14 PM 38.6764 -84.3489 313° West 351 404 32,000  Level Indianapolis Center
Mon 07:44:16 PM 38.7467 -84.4433 314° West 361 415 32,000  Level Indianapolis Center
Mon 07:45:18 PM 38.8178 -84.5400 313° West 360 414 32,000  Level Indianapolis Center
Mon 07:46:19 PM 38.8972 -84.6219 321° Northwest 370 426 32,000  Level Indianapolis Center
Mon 07:47:21 PM 38.9856 -84.6778 334° Northwest 362 417 32,000  Level Indianapolis Center
Mon 07:48:23 PM 39.0725 -84.7342 333° Northwest 351 404 32,000  Level Indianapolis Center
Mon 07:49:24 PM 39.1608 -84.7919 333° Northwest 351 404 32,000  Level Indianapolis Center
Mon 07:50:26 PM 39.2467 -84.8481 333° Northwest 345 397 32,000  Level Indianapolis Center
Mon 07:51:27 PM 39.3289 -84.9011 333° Northwest 348 400 32,000 -683 Level Indianapolis Center
Mon 07:52:29 PM 39.4314 -84.9692 333° Northwest 346 398 30,600 -1,887 Descending Indianapolis Center
Mon 07:53:31 PM 39.5194 -85.0272 333° Northwest 355 409 28,100 -1,268 Descending Indianapolis Center
Mon 07:54:32 PM 39.6053 -85.0831 333° Northwest 349 402 28,000 -49 Descending Indianapolis Center
Mon 07:55:34 PM 39.6892 -85.1389 333° Northwest 343 395 28,000 -293 Level Indianapolis Center
Mon 07:56:35 PM 39.7736 -85.1953 333° Northwest 343 395 27,400 -780 Descending Indianapolis Center
Mon 07:57:37 PM 39.8592 -85.2517 333° Northwest 346 398 26,400 -677 Descending Indianapolis Center
Mon 07:58:39 PM 39.9639 -85.3217 333° Northwest 353 406 26,000 -195 Descending Indianapolis Center
Mon 07:59:40 PM 40.0517 -85.3800 333° Northwest 356 410 26,000  Level Indianapolis Center
Mon 08:00:42 PM 40.1394 -85.4397 333° Northwest 358 412 26,000 -209 Level Indianapolis Center
Mon 08:01:06 PM 40.1750 -85.4633 333° Northwest 364 419 25,700 -907 Descending Chicago Center
Mon 08:02:08 PM 40.2683 -85.5283 332° Northwest 381 438 24,700 -823 Descending Chicago Center
Mon 08:03:10 PM 40.3406 -85.6306 313° West 383 441 24,000 -339 Descending Chicago Center
Mon 08:04:12 PM 40.4247 -85.7556 312° West 383 441 24,000 -194 Level Chicago Center
Mon 08:05:14 PM 40.4936 -85.8583 311° West 378 435 23,600 -726 Descending Chicago Center
Mon 08:06:16 PM 40.5633 -85.9625 311° West 382 440 22,500 -1,113 Descending Chicago Center
Mon 08:07:18 PM 40.6319 -86.0664 311° West 378 435 21,300 -1,113 Descending Chicago Center
Mon 08:08:20 PM 40.6972 -86.1661 311° West 369 425 20,200 -629 Descending Chicago Center
Mon 08:09:22 PM 40.7631 -86.2658 311° West 362 417 20,000 -97 Descending Chicago Center
Mon 08:10:24 PM 40.8419 -86.3883 310° West 363 418 20,000  Level Chicago Center
Mon 08:11:26 PM 40.9103 -86.4922 311° West 371 427 20,000  Level Chicago Center
Mon 08:12:28 PM 40.9806 -86.5981 311° West 379 436 20,000 -339 Level Chicago Center
Mon 08:13:30 PM 41.0472 -86.7006 311° West 371 427 19,300 -1,258 Descending Chicago Center
Mon 08:14:32 PM 41.1181 -86.8092 311° West 361 415 17,400 -1,887 Descending Chicago Center
Mon 08:15:34 PM 41.1800 -86.9061 310° West 349 402 15,400 -1,935 Descending Chicago Center
Mon 08:16:36 PM 41.2419 -87.0003 311° West 341 392 13,400 -1,935 Descending Chicago Center
Mon 08:17:38 PM 41.3017 -87.0950 310° West 338 389 11,400 -1,161 Descending Chicago Center
Mon 08:18:40 PM 41.3706 -87.1997 311° West 318 366 11,000 -247 Descending Chicago Center
Mon 08:19:15 PM 41.4167 -87.2500 321° Northwest 318 366 11,000 -63 Level Chicago TRACON
Mon 08:20:15 PM 41.4833 -87.3333 317° Northwest 321 369 10,900 -500 Descending Chicago TRACON
Mon 08:21:15 PM 41.5500 -87.4000 323° Northwest 320 368 10,000 -593 Descending Chicago TRACON
Mon 08:21:46 PM 41.5692 -87.4325 308° West 320 368 10,000  Level Chicago Center
Mon 08:22:49 PM 41.6508 -87.5214 321° Northwest 319 367 10,000  Level Chicago Center
Mon 08:23:51 PM 41.7175 -87.5964 320° Northwest 318 366 10,000  Level Chicago Center
Mon 08:24:16 PM 41.7500 -87.6333 320° Northwest 303 349 10,000 -608 Level Chicago TRACON
Mon 08:25:10 PM 41.8000 -87.6833 323° Northwest 255 293 9,200 -1,211 Descending Chicago TRACON
Mon 08:26:10 PM 41.8500 -87.7500 315° West 257 296 7,700 -1,100 Descending Chicago TRACON
Mon 08:27:10 PM 41.8667 -87.8500 283° West 255 293 7,000 -350 Descending Chicago TRACON
Mon 08:28:10 PM 41.8833 -87.9333 285° West 239 275 7,000 -50 Level Chicago TRACON
Mon 08:29:10 PM 41.9000 -88.0000 289° West 218 251 6,900 -700 Descending Chicago TRACON
Mon 08:30:10 PM 41.9000 -88.0833 270° West 204 235 5,600 -1,252 Descending Chicago TRACON
Mon 08:31:05 PM 41.9069 -88.1386 280° West 205 236 4,500 -821 Descending Chicago Center
Mon 08:32:07 PM 41.9228 -88.2100 287° West 196 226 4,000 -242 Descending Chicago Center
Mon 08:33:09 PM 41.9658 -88.1778 29° Northeast 194 223 4,000 -387 Level Chicago Center
Mon 08:34:11 PM 41.9683 -88.1036 87° East 197 227 3,200 -934 Descending Chicago Center
Mon 08:35:11 PM 41.9667 -88.0333 92° East 180 207 2,100 -900 Descending Chicago TRACON
Mon 08:36:11 PM 41.9667 -87.9833 90° East 131 151 1,400 -700 Descending Chicago TRACON
Mon 08:39:00 PM 41.9667 -87.9000 62° Northeast  Level FlightAware Approximate

Login

Don't have an account? Register now (free) for customized features, flight alerts, and more!